This is the latest recevied weather packets stored in our database for station/object WR9A-13. If no packets are shown the sender has not sent any weather packets the latest 10 day(s).
| Time | Temp. | Humidity | Pressure | Rain* | Wind** | Luminosity | Snow |
|---|---|---|---|---|---|---|---|
| 1777555532 | 8.89° C | 83% | 1018.2 hPa | 0 mm | - | - | - |
| 1777555220 | 8.33° C | 84% | 1018.1 hPa | 0 mm | - | - | - |
| 1777554917 | 7.78° C | 83% | 1018 hPa | 0 mm | - | - | - |
| 1777554620 | 7.22° C | 84% | 1018 hPa | 0 mm | - | - | - |
| 1777554317 | 7.22° C | 85% | 1018.2 hPa | 0 mm | - | - | - |
| 1777554027 | 7.22° C | 84% | 1018.1 hPa | 0 mm | - | - | - |
| 1777553715 | 7.22° C | 85% | 1018.3 hPa | 0 mm | - | - | - |
| 1777553451 | 7.22° C | 88% | 1018.4 hPa | 0 mm | - | - | - |
| 1777553118 | 6.67° C | 89% | 1018.3 hPa | 0 mm | - | - | - |
| 1777552815 | 6.11° C | 90% | 1018.2 hPa | 0 mm | - | - | - |
| 1777552523 | 6.11° C | 91% | 1018.1 hPa | 0 mm | - | - | - |
| 1777552219 | 5.56° C | 92% | 1018.1 hPa | 0 mm | - | - | - |
| 1777551936 | 5.56° C | 93% | 1018 hPa | 0 mm | - | - | - |
| 1777551623 | 5° C | 93% | 1017.9 hPa | 0 mm | - | - | - |
| 1777551339 | 5° C | 94% | 1018 hPa | 0 mm | - | - | - |
| 1777551027 | 4.44° C | 94% | 1017.9 hPa | 0 mm | - | - | - |
| 1777550715 | 4.44° C | 94% | 1018 hPa | 0 mm | - | - | - |
| 1777550427 | 3.89° C | 94% | 1018 hPa | 0 mm | - | - | - |
| 1777550124 | 3.33° C | 94% | 1017.9 hPa | 0 mm | - | - | - |
| 1777549832 | 3.33° C | 93% | 1017.8 hPa | 0 mm | - | - | - |
| 1777549529 | 2.78° C | 93% | 1017.7 hPa | 0 mm | - | - | - |
| 1777549246 | 2.78° C | 93% | 1017.7 hPa | 0 mm | - | - | - |
| 1777548922 | 2.78° C | 93% | 1017.7 hPa | 0 mm | - | - | - |
| 1777548640 | 2.78° C | 93% | 1017.7 hPa | 0 mm | - | - | - |
| 1777548327 | 2.78° C | 92% | 1017.8 hPa | 0 mm | - | - | - |
* Rain latest hour (hover to see other rain measurements)
** Current wind speed in m/s (hover to see current wind gust speed)